Terminal Aerodrome Forecast
Issued by NWS Cleveland, OH

Home | Current Version | Previous Version | Graphics & Text | Print | Product List | Glossary Off
Versions: 1 2 3 4 5 6 7 8 9 10 11 12 13 14 15 16 17 18 19 20 21 22 23 24 25

000
FTUS41 KCLE 281400 AAA
TAFYNG
TAF AMD
KYNG 281401Z 2814/2912 25008KT P6SM SCT025 BKN035
      TEMPO 2814/2816 1SM -SHSN BKN025 OVC035
     FM281600 26008KT P6SM BKN050
     FM290100 22006KT P6SM -SHSN OVC070=

USA.gov is the U.S. government's official web portal to all federal, state and local government web resources and services.